createdAt,value
2018-05-24T00:00:25.845Z,17.90
2018-05-24T00:02:54.032Z,17.90
2018-05-24T00:05:22.163Z,17.90
2018-05-24T00:07:51.134Z,17.90
2018-05-24T00:10:19.199Z,17.90
2018-05-24T00:12:47.351Z,17.90
2018-05-24T00:15:15.495Z,17.80
2018-05-24T00:17:43.629Z,17.80
2018-05-24T00:20:11.861Z,17.80
2018-05-24T00:22:40.136Z,17.80
2018-05-24T00:25:08.314Z,17.80
2018-05-24T00:27:36.431Z,17.80
2018-05-24T00:30:04.660Z,17.70
2018-05-24T00:32:32.801Z,17.70
2018-05-24T00:35:01.707Z,17.60
2018-05-24T00:37:29.930Z,17.60
2018-05-24T00:39:58.101Z,17.60
2018-05-24T00:42:26.247Z,17.60
2018-05-24T00:44:54.402Z,17.50
2018-05-24T00:47:22.532Z,17.50
2018-05-24T00:49:50.756Z,17.50
2018-05-24T00:52:18.945Z,17.50
2018-05-24T00:54:47.129Z,17.50
2018-05-24T00:57:15.291Z,17.50
2018-05-24T00:59:43.428Z,17.40
2018-05-24T01:02:12.338Z,17.40
2018-05-24T01:04:40.508Z,17.40
2018-05-24T01:07:08.696Z,17.40
2018-05-24T01:09:36.868Z,17.40
2018-05-24T01:12:05.000Z,17.30
2018-05-24T01:14:33.920Z,17.20
2018-05-24T01:17:02.072Z,17.20
2018-05-24T01:19:30.967Z,17.20
2018-05-24T01:21:59.883Z,17.10
2018-05-24T01:24:28.016Z,17.10
2018-05-24T01:26:56.157Z,17.10
2018-05-24T01:29:24.307Z,17.10
2018-05-24T01:31:52.428Z,17.10
2018-05-24T01:34:23.148Z,17.00
2018-05-24T01:37:03.276Z,17.00
2018-05-24T01:39:31.446Z,17.00
2018-05-24T01:41:59.598Z,17.00
2018-05-24T01:44:27.763Z,17.00
2018-05-24T01:46:56.784Z,16.90
2018-05-24T01:49:24.954Z,16.90
2018-05-24T01:51:53.120Z,16.90
2018-05-24T01:54:21.256Z,16.90
2018-05-24T01:56:49.433Z,16.90
2018-05-24T01:59:17.570Z,16.80
2018-05-24T02:01:45.706Z,16.80
2018-05-24T02:04:13.852Z,16.80
2018-05-24T02:06:42.066Z,16.80
2018-05-24T02:09:10.208Z,16.80
2018-05-24T02:11:39.146Z,16.70
2018-05-24T02:14:07.295Z,16.70
2018-05-24T02:16:35.441Z,16.70
2018-05-24T02:19:03.572Z,16.70
2018-05-24T02:21:31.706Z,16.70
2018-05-24T02:24:00.712Z,16.60
2018-05-24T02:26:28.860Z,16.60
2018-05-24T02:28:57.851Z,16.50
2018-05-24T02:31:25.956Z,16.50
2018-05-24T02:33:54.114Z,16.50
2018-05-24T02:36:22.305Z,16.50
2018-05-24T02:38:50.431Z,16.50
2018-05-24T02:41:18.568Z,16.50
2018-05-24T02:43:46.823Z,16.40
2018-05-24T02:46:14.967Z,16.40
2018-05-24T02:48:43.874Z,16.40
2018-05-24T02:51:12.021Z,16.40
2018-05-24T02:53:40.172Z,16.40
2018-05-24T02:56:08.412Z,16.40
2018-05-24T02:58:36.552Z,16.40
2018-05-24T03:01:05.462Z,16.30
2018-05-24T03:03:33.600Z,16.30
2018-05-24T03:06:01.836Z,16.30
2018-05-24T03:08:29.974Z,16.30
2018-05-24T03:10:58.889Z,16.20
2018-05-24T03:13:27.063Z,16.20
2018-05-24T03:15:55.218Z,16.20
2018-05-24T03:18:24.121Z,16.10
2018-05-24T03:20:52.249Z,16.10
2018-05-24T03:23:20.406Z,16.10
2018-05-24T03:25:48.541Z,16.00
2018-05-24T03:28:16.687Z,16.00
2018-05-24T03:30:45.588Z,15.90
2018-05-24T03:33:14.480Z,15.90
2018-05-24T03:35:43.384Z,15.90
2018-05-24T03:38:11.851Z,15.90
2018-05-24T03:40:40.747Z,15.80
2018-05-24T03:43:08.935Z,15.80
2018-05-24T03:45:37.227Z,15.80
2018-05-24T03:48:06.195Z,15.80
2018-05-24T03:50:34.335Z,15.70
2018-05-24T03:53:02.461Z,15.70
2018-05-24T03:55:30.607Z,15.70
2018-05-24T03:57:58.821Z,15.60
2018-05-24T04:00:38.725Z,15.70
2018-05-24T04:03:19.736Z,15.70
2018-05-24T04:05:47.980Z,15.70
2018-05-24T04:08:16.789Z,15.70
2018-05-24T04:10:44.921Z,15.70
2018-05-24T04:13:13.047Z,15.70
2018-05-24T04:15:41.199Z,15.70
2018-05-24T04:18:09.337Z,15.70
2018-05-24T04:20:37.467Z,15.70
2018-05-24T04:23:05.613Z,15.70
2018-05-24T04:25:33.795Z,15.80
2018-05-24T04:28:01.969Z,15.80
2018-05-24T04:30:30.103Z,15.90
2018-05-24T04:32:58.295Z,15.90
2018-05-24T04:35:27.188Z,16.00
2018-05-24T04:37:56.214Z,16.00
2018-05-24T04:40:24.325Z,15.90
2018-05-24T04:42:52.488Z,16.00
2018-05-24T04:45:20.644Z,16.00
2018-05-24T04:47:48.916Z,16.00
2018-05-24T04:50:17.028Z,16.00
2018-05-24T04:52:45.240Z,16.00
2018-05-24T04:55:13.390Z,16.00
2018-05-24T04:57:42.332Z,16.10
2018-05-24T05:00:10.470Z,16.10
2018-05-24T05:02:38.607Z,16.20
2018-05-24T05:05:06.780Z,16.20
2018-05-24T05:07:34.932Z,16.20
2018-05-24T05:10:03.103Z,16.20
2018-05-24T05:12:31.233Z,16.30
2018-05-24T05:15:00.150Z,16.40
2018-05-24T05:17:28.298Z,16.40
2018-05-24T05:19:57.255Z,16.50
2018-05-24T05:22:25.372Z,16.50
2018-05-24T05:24:53.560Z,16.70
2018-05-24T05:27:21.742Z,16.80
2018-05-24T05:29:49.950Z,16.90
2018-05-24T05:32:18.068Z,16.90
2018-05-24T05:34:46.262Z,16.90
2018-05-24T05:37:14.425Z,16.90
2018-05-24T05:39:42.578Z,16.90
2018-05-24T05:42:10.704Z,16.90
2018-05-24T05:44:38.958Z,17.10
2018-05-24T05:47:07.105Z,17.10
2018-05-24T05:49:36.010Z,17.10
2018-05-24T05:52:04.148Z,17.10
2018-05-24T05:54:32.280Z,17.10
2018-05-24T05:57:00.540Z,17.10
2018-05-24T05:59:28.714Z,17.20
2018-05-24T06:01:56.917Z,17.30
2018-05-24T06:04:25.744Z,17.50
2018-05-24T06:06:54.879Z,17.50
2018-05-24T06:09:23.016Z,17.50
2018-05-24T06:11:51.941Z,17.70
2018-05-24T06:14:20.068Z,17.70
2018-05-24T06:16:48.212Z,17.70
2018-05-24T06:19:16.376Z,17.80
2018-05-24T06:21:44.531Z,18.00
2018-05-24T06:24:12.658Z,18.00
2018-05-24T06:26:40.858Z,18.20
2018-05-24T06:29:09.772Z,18.40
2018-05-24T06:31:37.893Z,18.40
2018-05-24T06:34:06.015Z,18.50
2018-05-24T06:36:34.396Z,18.60
2018-05-24T06:39:02.540Z,18.70
2018-05-24T06:41:31.426Z,18.90
2018-05-24T06:44:00.333Z,19.00
2018-05-24T06:46:29.231Z,19.10
2018-05-24T06:48:57.363Z,19.10
2018-05-24T06:51:25.500Z,19.20
2018-05-24T06:53:53.623Z,19.40
2018-05-24T06:56:22.720Z,19.50
2018-05-24T06:58:51.625Z,19.60
2018-05-24T07:01:19.779Z,19.60
2018-05-24T07:03:48.669Z,19.70
2018-05-24T07:06:17.559Z,19.80
2018-05-24T07:08:45.781Z,19.80
2018-05-24T07:11:13.913Z,19.80
2018-05-24T07:13:42.797Z,20.00
2018-05-24T07:16:11.010Z,20.00
2018-05-24T07:18:39.276Z,20.00
2018-05-24T07:21:07.307Z,20.00
2018-05-24T07:23:35.467Z,20.00
2018-05-24T07:26:03.592Z,20.10
2018-05-24T07:28:31.721Z,20.10
2018-05-24T07:31:00.123Z,20.20
2018-05-24T07:33:29.041Z,20.20
2018-05-24T07:35:57.169Z,20.20
2018-05-24T07:38:25.368Z,20.40
2018-05-24T07:40:53.575Z,20.60
2018-05-24T07:43:21.733Z,20.70
2018-05-24T07:45:49.905Z,20.80
2018-05-24T07:48:18.090Z,20.90
2018-05-24T07:50:46.269Z,21.00
2018-05-24T07:53:14.375Z,21.00
2018-05-24T07:55:42.504Z,21.00
2018-05-24T07:58:10.647Z,21.00
2018-05-24T08:00:39.663Z,21.10
2018-05-24T08:03:07.854Z,21.10
2018-05-24T08:05:35.977Z,21.10
2018-05-24T08:08:05.609Z,21.30
2018-05-24T08:10:34.509Z,21.40
2018-05-24T08:13:02.687Z,21.40
2018-05-24T08:15:30.921Z,21.50
2018-05-24T08:17:59.152Z,21.50
2018-05-24T08:20:27.305Z,21.60
2018-05-24T08:22:55.443Z,21.60
2018-05-24T08:25:23.656Z,21.60
2018-05-24T08:27:51.833Z,21.60
2018-05-24T08:30:19.977Z,21.60
2018-05-24T08:32:48.173Z,21.50
2018-05-24T08:35:16.364Z,21.60
2018-05-24T08:37:44.541Z,21.60
2018-05-24T08:40:12.689Z,21.70
2018-05-24T08:42:41.590Z,21.60
2018-05-24T08:45:09.738Z,21.60
2018-05-24T08:47:37.881Z,21.70
2018-05-24T08:50:06.036Z,21.70
2018-05-24T08:52:34.197Z,21.70
2018-05-24T08:55:02.345Z,21.60
2018-05-24T08:57:31.241Z,21.70
2018-05-24T09:00:00.164Z,21.70
2018-05-24T09:02:28.304Z,21.70
2018-05-24T09:04:57.204Z,21.70
2018-05-24T09:07:25.337Z,21.70
2018-05-24T09:09:53.481Z,21.80
2018-05-24T09:12:21.632Z,21.90
2018-05-24T09:14:49.764Z,22.00
2018-05-24T09:17:17.988Z,22.10
2018-05-24T09:19:46.097Z,22.20
2018-05-24T09:22:14.293Z,22.30
2018-05-24T09:24:42.420Z,22.50
2018-05-24T09:27:10.552Z,22.70
2018-05-24T09:29:47.644Z,23.10
2018-05-24T09:32:17.387Z,23.00
2018-05-24T09:34:45.756Z,23.30
2018-05-24T09:37:13.904Z,23.40
2018-05-24T09:39:42.794Z,23.40
2018-05-24T09:42:11.825Z,23.50
2018-05-24T09:44:41.747Z,23.50
2018-05-24T09:47:14.108Z,23.60
2018-05-24T09:49:42.280Z,23.60
2018-05-24T09:52:10.570Z,23.60
2018-05-24T09:54:38.717Z,23.60
2018-05-24T09:57:06.900Z,23.50
2018-05-24T09:59:35.008Z,23.40
2018-05-24T10:02:03.182Z,23.30
2018-05-24T10:04:31.312Z,23.40
2018-05-24T10:06:59.428Z,23.30
2018-05-24T10:09:27.571Z,23.40
2018-05-24T10:11:55.725Z,23.50
2018-05-24T10:14:23.845Z,23.50
2018-05-24T10:16:51.967Z,23.50
2018-05-24T10:19:20.139Z,23.50
2018-05-24T10:21:48.299Z,23.60
2018-05-24T10:24:17.198Z,23.60
2018-05-24T10:26:45.347Z,23.60
2018-05-24T10:29:13.549Z,23.70
2018-05-24T10:31:41.690Z,23.90
2018-05-24T10:34:09.827Z,23.90
2018-05-24T10:36:37.966Z,24.00
2018-05-24T10:39:06.107Z,24.00
2018-05-24T10:41:34.251Z,24.10
2018-05-24T10:44:02.375Z,24.20
2018-05-24T10:46:31.267Z,24.20
2018-05-24T10:49:00.176Z,24.30
2018-05-24T10:51:28.335Z,24.30
2018-05-24T10:53:57.223Z,24.50
2018-05-24T10:56:26.130Z,24.70
2018-05-24T10:58:54.279Z,24.70
2018-05-24T11:01:23.179Z,24.90
2018-05-24T11:03:51.364Z,24.90
2018-05-24T11:06:19.552Z,24.90
2018-05-24T11:08:47.679Z,25.00
2018-05-24T11:11:15.819Z,25.10
2018-05-24T11:13:43.977Z,25.20
2018-05-24T11:16:12.097Z,25.40
2018-05-24T11:18:40.309Z,25.60
2018-05-24T11:21:08.585Z,25.60
2018-05-24T11:23:36.722Z,25.70
2018-05-24T11:26:04.883Z,25.80
2018-05-24T11:28:33.009Z,25.90
2018-05-24T11:31:01.195Z,25.90
2018-05-24T11:33:29.341Z,25.90
2018-05-24T11:35:58.230Z,26.20
2018-05-24T11:38:27.113Z,26.30
2018-05-24T11:40:56.031Z,26.40
2018-05-24T11:43:24.183Z,26.30
2018-05-24T11:45:53.080Z,26.40
2018-05-24T11:48:21.995Z,26.60
2018-05-24T11:50:50.266Z,26.60
2018-05-24T11:53:18.404Z,26.60
2018-05-24T11:55:46.532Z,26.50
2018-05-24T11:58:14.658Z,26.40
2018-05-24T12:00:43.676Z,26.30
2018-05-24T12:03:11.828Z,26.30
2018-05-24T12:05:40.744Z,26.30
2018-05-24T12:08:08.860Z,26.30
2018-05-24T12:10:37.013Z,26.30
2018-05-24T12:13:05.258Z,26.10
2018-05-24T12:15:33.372Z,26.10
2018-05-24T12:18:01.512Z,26.00
2018-05-24T12:20:29.637Z,26.10
2018-05-24T12:22:57.804Z,26.00
2018-05-24T12:25:25.946Z,26.00
2018-05-24T12:27:54.054Z,26.10
2018-05-24T12:30:22.196Z,26.20
2018-05-24T12:32:50.366Z,26.10
2018-05-24T12:35:18.617Z,26.10
2018-05-24T12:37:46.704Z,26.00
2018-05-24T12:40:14.833Z,25.90
2018-05-24T12:42:42.968Z,25.90
2018-05-24T12:45:11.100Z,25.90
2018-05-24T12:47:39.996Z,26.00
2018-05-24T12:50:08.999Z,25.90
2018-05-24T12:52:37.172Z,25.90
2018-05-24T12:55:05.333Z,25.90
2018-05-24T12:57:34.232Z,26.20
2018-05-24T13:00:02.425Z,26.20
2018-05-24T13:02:30.599Z,26.30
2018-05-24T13:04:58.732Z,26.40
2018-05-24T13:07:27.653Z,26.40
2018-05-24T13:09:55.844Z,26.40
2018-05-24T13:12:23.924Z,26.50
2018-05-24T13:14:52.056Z,26.60
2018-05-24T13:17:20.943Z,26.50
2018-05-24T13:19:49.875Z,26.40
2018-05-24T13:22:18.034Z,26.40
2018-05-24T13:24:47.955Z,26.50
2018-05-24T13:27:16.067Z,26.50
2018-05-24T13:29:44.302Z,26.60
2018-05-24T13:32:12.423Z,26.50
2018-05-24T13:34:40.568Z,26.60
2018-05-24T13:37:08.819Z,26.70
2018-05-24T13:39:36.945Z,26.70
2018-05-24T13:42:05.083Z,26.60
2018-05-24T13:44:33.229Z,26.70
2018-05-24T13:47:01.423Z,26.60
2018-05-24T13:49:29.555Z,26.70
2018-05-24T13:51:58.471Z,26.70
2018-05-24T13:54:26.619Z,26.70
2018-05-24T13:56:55.523Z,26.70
2018-05-24T13:59:23.654Z,26.70
2018-05-24T14:01:51.813Z,26.60
2018-05-24T14:04:19.959Z,26.50
2018-05-24T14:06:48.103Z,26.40
2018-05-24T14:09:17.025Z,26.40
2018-05-24T14:11:46.007Z,26.50
2018-05-24T14:14:14.185Z,26.50
2018-05-24T14:16:42.317Z,26.70
2018-05-24T14:19:10.549Z,26.90
2018-05-24T14:21:38.691Z,27.00
2018-05-24T14:24:07.699Z,27.20
2018-05-24T14:26:35.826Z,27.20
2018-05-24T14:29:04.065Z,27.20
2018-05-24T14:31:32.195Z,27.20
2018-05-24T14:34:01.215Z,27.10
2018-05-24T14:36:29.337Z,27.10
2018-05-24T14:38:57.518Z,27.10
2018-05-24T14:41:25.657Z,27.00
2018-05-24T14:43:53.825Z,26.80
2018-05-24T14:46:21.934Z,26.70
2018-05-24T14:48:50.065Z,26.60
2018-05-24T14:51:18.199Z,26.30
2018-05-24T14:53:47.239Z,25.90
2018-05-24T14:56:15.395Z,25.90
2018-05-24T14:58:43.533Z,25.80
2018-05-24T15:01:11.679Z,25.50
2018-05-24T15:03:39.809Z,25.00
2018-05-24T15:06:08.007Z,24.60
2018-05-24T15:08:36.129Z,24.20
2018-05-24T15:11:05.061Z,23.60
2018-05-24T15:13:45.203Z,23.60
2018-05-24T15:16:14.347Z,23.20
2018-05-24T15:18:42.468Z,23.20
2018-05-24T15:21:11.400Z,22.70
2018-05-24T15:23:39.512Z,22.70
2018-05-24T15:26:08.235Z,22.50
2018-05-24T15:28:36.379Z,22.20
2018-05-24T15:31:04.491Z,22.00
2018-05-24T15:33:32.624Z,21.90
2018-05-24T15:36:01.569Z,21.70
2018-05-24T15:38:29.681Z,21.60
2018-05-24T15:40:57.813Z,21.70
2018-05-24T15:43:25.937Z,21.60
2018-05-24T15:45:54.083Z,21.60
2018-05-24T15:48:22.324Z,21.50
2018-05-24T15:50:50.464Z,21.50
2018-05-24T15:53:19.389Z,21.50
2018-05-24T15:55:51.102Z,21.40
2018-05-24T15:58:19.291Z,21.50
2018-05-24T16:00:48.212Z,21.50
2018-05-24T16:03:16.365Z,21.40
2018-05-24T16:05:44.499Z,21.40
2018-05-24T16:08:12.735Z,21.40
2018-05-24T16:10:40.905Z,21.50
2018-05-24T16:13:09.184Z,21.50
2018-05-24T16:15:37.378Z,21.50
2018-05-24T16:18:05.500Z,21.60
2018-05-24T16:20:34.408Z,21.70
2018-05-24T16:23:02.578Z,21.60
2018-05-24T16:25:30.740Z,21.70
2018-05-24T16:27:59.628Z,21.70
2018-05-24T16:30:28.656Z,21.70
2018-05-24T16:32:56.787Z,21.70
2018-05-24T16:35:25.708Z,21.60
2018-05-24T16:37:53.835Z,21.60
2018-05-24T16:40:22.062Z,21.60
2018-05-24T16:42:50.208Z,21.60
2018-05-24T16:45:19.127Z,21.60
2018-05-24T16:47:47.254Z,21.60
2018-05-24T16:50:15.468Z,21.60
2018-05-24T16:52:43.632Z,21.60
2018-05-24T16:55:12.565Z,21.50
2018-05-24T16:57:40.680Z,21.40
2018-05-24T17:00:09.612Z,21.50
2018-05-24T17:02:37.733Z,21.50
2018-05-24T17:05:05.867Z,21.50
2018-05-24T17:07:34.034Z,21.50
2018-05-24T17:10:02.208Z,21.60
2018-05-24T17:12:30.379Z,21.60
2018-05-24T17:14:59.962Z,21.60
2018-05-24T17:17:28.977Z,21.60
2018-05-24T17:19:57.157Z,21.60
2018-05-24T17:22:25.316Z,21.60
2018-05-24T17:24:53.441Z,21.70
2018-05-24T17:27:21.618Z,21.60
2018-05-24T17:29:49.849Z,21.60
2018-05-24T17:32:18.009Z,21.60
2018-05-24T17:34:46.161Z,21.60
2018-05-24T17:37:15.099Z,21.70
2018-05-24T17:39:43.269Z,21.70
2018-05-24T17:42:11.397Z,21.70
2018-05-24T17:44:40.312Z,21.90
2018-05-24T17:47:08.469Z,21.90
2018-05-24T17:49:37.398Z,22.10
2018-05-24T17:52:05.547Z,22.10
2018-05-24T17:54:35.280Z,22.30
2018-05-24T17:57:03.446Z,22.30
2018-05-24T17:59:31.616Z,22.40
2018-05-24T18:01:59.742Z,22.50
2018-05-24T18:04:27.884Z,22.50
2018-05-24T18:06:56.146Z,22.50
2018-05-24T18:09:24.250Z,22.50
2018-05-24T18:11:52.385Z,22.50
2018-05-24T18:14:20.544Z,22.50
2018-05-24T18:16:48.704Z,22.60
2018-05-24T18:19:32.557Z,22.50
2018-05-24T18:22:00.694Z,22.50
2018-05-24T18:24:28.822Z,22.50
2018-05-24T18:26:56.968Z,22.50
2018-05-24T18:29:25.872Z,22.50
2018-05-24T18:31:54.037Z,22.50
2018-05-24T18:34:22.967Z,22.50
2018-05-24T18:36:51.104Z,22.50
2018-05-24T18:39:19.253Z,22.50
2018-05-24T18:41:47.406Z,22.50
2018-05-24T18:44:15.524Z,22.50
2018-05-24T18:46:43.664Z,22.50
2018-05-24T18:49:11.812Z,22.50
2018-05-24T18:51:39.936Z,22.60
2018-05-24T18:54:08.852Z,22.50
2018-05-24T18:56:37.208Z,22.50
2018-05-24T18:59:05.286Z,22.50
2018-05-24T19:01:33.468Z,22.50
2018-05-24T19:04:02.365Z,22.40
2018-05-24T19:06:30.496Z,22.40
2018-05-24T19:09:00.153Z,22.30
2018-05-24T19:11:28.638Z,22.30
2018-05-24T19:13:56.801Z,22.20
2018-05-24T19:16:24.971Z,22.10
2018-05-24T19:18:53.151Z,21.90
2018-05-24T19:21:21.304Z,21.90
2018-05-24T19:23:50.226Z,21.80
2018-05-24T19:26:18.366Z,21.70
2018-05-24T19:28:47.496Z,21.70
2018-05-24T19:31:15.612Z,21.50
2018-05-24T19:33:43.760Z,21.50
2018-05-24T19:36:11.914Z,21.40
2018-05-24T19:38:40.045Z,21.40
2018-05-24T19:41:08.976Z,21.40
2018-05-24T19:43:37.092Z,21.30
2018-05-24T19:46:06.744Z,21.20
2018-05-24T19:48:34.877Z,21.20
2018-05-24T19:51:03.022Z,21.20
2018-05-24T19:53:31.144Z,21.20
2018-05-24T19:56:00.274Z,21.10
2018-05-24T19:58:28.416Z,21.10
2018-05-24T20:00:57.304Z,21.00
2018-05-24T20:03:26.212Z,20.90
2018-05-24T20:05:54.352Z,20.90
2018-05-24T20:08:22.530Z,20.90
2018-05-24T20:10:51.432Z,21.00
2018-05-24T20:13:20.324Z,20.90
2018-05-24T20:15:49.283Z,20.90
2018-05-24T20:18:17.462Z,20.90
2018-05-24T20:20:45.583Z,21.00
2018-05-24T20:23:13.733Z,20.90
2018-05-24T20:25:42.733Z,20.90
2018-05-24T20:28:12.371Z,20.80
2018-05-24T20:30:40.539Z,20.80
2018-05-24T20:33:08.682Z,20.80
2018-05-24T20:35:37.716Z,20.70
2018-05-24T20:38:05.841Z,20.70
2018-05-24T20:40:33.968Z,20.70
2018-05-24T20:43:02.130Z,20.70
2018-05-24T20:45:30.271Z,20.60
2018-05-24T20:47:59.188Z,20.50
2018-05-24T20:50:27.317Z,20.50
2018-05-24T20:52:55.466Z,20.40
2018-05-24T20:55:23.632Z,20.40
2018-05-24T20:57:51.764Z,20.40
2018-05-24T21:00:20.666Z,20.20
2018-05-24T21:02:48.828Z,20.20
2018-05-24T21:05:17.723Z,20.10
2018-05-24T21:07:45.868Z,20.10
2018-05-24T21:10:14.006Z,20.10
2018-05-24T21:12:42.131Z,20.00
2018-05-24T21:15:11.144Z,19.90
2018-05-24T21:17:39.438Z,19.90
2018-05-24T21:20:07.547Z,19.90
2018-05-24T21:22:37.184Z,19.80
2018-05-24T21:25:06.092Z,19.80
2018-05-24T21:27:34.263Z,19.80
2018-05-24T21:30:02.454Z,19.70
2018-05-24T21:32:30.616Z,19.70
2018-05-24T21:34:58.764Z,19.70
2018-05-24T21:37:27.680Z,19.60
2018-05-24T21:39:55.816Z,19.60
2018-05-24T21:42:24.044Z,19.60
2018-05-24T21:44:52.156Z,19.50
2018-05-24T21:47:20.293Z,19.50
2018-05-24T21:49:48.432Z,19.50
2018-05-24T21:52:17.316Z,19.40
2018-05-24T21:54:46.207Z,19.40
2018-05-24T21:57:15.216Z,19.40
2018-05-24T21:59:44.121Z,19.30
2018-05-24T22:02:12.244Z,19.30
2018-05-24T22:04:41.913Z,19.30
2018-05-24T22:07:10.072Z,19.30
2018-05-24T22:09:38.244Z,19.30
2018-05-24T22:12:06.368Z,19.30
2018-05-24T22:14:34.502Z,19.30
2018-05-24T22:17:02.684Z,19.30
2018-05-24T22:19:31.566Z,19.30
2018-05-24T22:21:59.691Z,19.30
2018-05-24T22:24:27.814Z,19.30
2018-05-24T22:26:55.980Z,19.30
2018-05-24T22:29:24.106Z,19.30
2018-05-24T22:31:52.236Z,19.30
2018-05-24T22:34:20.400Z,19.30
2018-05-24T22:36:48.544Z,19.30
2018-05-24T22:39:17.465Z,19.20
2018-05-24T22:41:45.633Z,19.20
2018-05-24T22:44:13.818Z,19.10
2018-05-24T22:46:41.950Z,19.10
2018-05-24T22:49:10.084Z,19.00
2018-05-24T22:51:38.339Z,19.00
2018-05-24T22:54:06.447Z,18.90
2018-05-24T22:56:34.679Z,18.80
2018-05-24T22:59:02.963Z,18.80
2018-05-24T23:01:31.138Z,18.70
2018-05-24T23:03:59.275Z,18.60
2018-05-24T23:06:28.167Z,18.50
2018-05-24T23:08:57.076Z,18.40
2018-05-24T23:11:25.271Z,18.40
2018-05-24T23:13:53.400Z,18.40
2018-05-24T23:16:22.307Z,18.40
2018-05-24T23:18:50.461Z,18.30
2018-05-24T23:21:19.385Z,18.30
2018-05-24T23:23:47.572Z,18.20
2018-05-24T23:26:15.722Z,18.20
2018-05-24T23:28:43.908Z,18.20
2018-05-24T23:31:12.031Z,18.10
2018-05-24T23:33:40.195Z,18.10
2018-05-24T23:36:08.441Z,18.00
2018-05-24T23:38:36.555Z,18.00
2018-05-24T23:41:04.699Z,18.00
2018-05-24T23:43:32.841Z,18.00
2018-05-24T23:46:00.973Z,17.90
2018-05-24T23:48:29.127Z,17.90
2018-05-24T23:50:57.287Z,17.90
2018-05-24T23:53:25.451Z,17.80
2018-05-24T23:55:54.431Z,17.70
2018-05-24T23:58:22.601Z,17.70
